Time;durP1;ratioP1;P1;durP2;ratioP2;P2;SDS_P1;SDS_P2;PMS_P1;PMS_P2;Temp;Humidity;BMP_temperature;BMP_pressure;BME280_temperature;BME280_humidity;BME280_pressure;Samples;Min_cycle;Max_cycle;Signal;HPM_P1;HPM_P2
2024/01/11 00:02:20;;;;;;;15.52;4.75;;;;;;;-0.71;61.02;102831.88;5048236;28;20159;-39
2024/01/11 00:04:45;;;;;;;22.88;6.38;;;;;;;-0.68;61.32;102831.97;5047128;28;20091;-39
2024/01/11 00:07:11;;;;;;;19.05;7.55;;;;;;;-0.58;61.02;102820.13;5039208;28;20037;-39
2024/01/11 00:09:41;;;;;;;18.77;7.57;;;;;;;-0.45;60.12;102814.38;5040390;28;20120;-39
2024/01/11 00:12:07;;;;;;;17.20;5.57;;;;;;;-0.42;60.10;102813.53;5037971;28;20025;-39
2024/01/11 00:14:33;;;;;;;28.25;7.72;;;;;;;-0.48;61.07;102829.81;5033459;28;20514;-39
2024/01/11 00:16:58;;;;;;;24.33;8.68;;;;;;;-0.41;60.80;102836.00;5045058;28;20029;-39
2024/01/11 00:19:24;;;;;;;23.20;7.55;;;;;;;-0.34;60.49;102823.22;5040222;28;20032;-39
2024/01/11 00:21:49;;;;;;;17.70;7.47;;;;;;;-0.38;60.45;102826.56;5037424;28;20517;-39
2024/01/11 00:24:14;;;;;;;16.92;6.22;;;;;;;-0.29;60.04;102815.56;5037921;28;20036;-39
2024/01/11 00:26:41;;;;;;;24.20;7.63;;;;;;;-0.42;60.81;102824.78;5042202;28;20568;-39
2024/01/11 00:29:07;;;;;;;28.65;8.38;;;;;;;-0.45;61.14;102798.84;5017121;28;20056;-38
2024/01/11 00:31:32;;;;;;;25.05;6.28;;;;;;;-0.31;60.86;102801.75;5034327;28;20503;-39
2024/01/11 00:33:58;;;;;;;21.00;7.45;;;;;;;-0.27;60.19;102789.72;5042165;28;20025;-39
2024/01/11 00:36:23;;;;;;;19.45;7.65;;;;;;;-0.24;60.21;102801.00;5037688;28;20028;-39
2024/01/11 00:38:49;;;;;;;26.00;7.47;;;;;;;-0.16;60.22;102803.75;5036322;28;20032;-39
2024/01/11 00:41:14;;;;;;;23.10;7.70;;;;;;;0.06;59.54;102814.53;5040296;28;20037;-39
2024/01/11 00:43:40;;;;;;;28.52;9.93;;;;;;;0.19;58.56;102819.13;5021292;28;20394;-39
2024/01/11 00:46:05;;;;;;;21.50;8.63;;;;;;;0.09;59.85;102812.88;5023086;28;20083;-39
2024/01/11 00:48:30;;;;;;;27.02;8.48;;;;;;;-0.05;60.39;102810.00;5040539;28;20025;-39
2024/01/11 00:50:56;;;;;;;27.90;8.48;;;;;;;0.17;59.58;102805.25;5039505;28;20509;-39
2024/01/11 00:53:21;;;;;;;20.50;7.72;;;;;;;0.20;60.02;102799.25;5037915;28;20032;-38
2024/01/11 00:55:47;;;;;;;28.40;9.50;;;;;;;0.15;60.06;102797.44;5037229;28;20041;-39
2024/01/11 00:58:12;;;;;;;24.75;7.82;;;;;;;0.34;59.25;102807.28;5035011;28;20566;-39
2024/01/11 01:00:38;;;;;;;31.50;9.00;;;;;;;0.43;58.28;102817.81;5037807;28;20063;-39
2024/01/11 01:03:03;;;;;;;23.88;8.10;;;;;;;0.33;59.43;102811.59;5036308;28;20147;-40
2024/01/11 01:05:29;;;;;;;27.45;8.55;;;;;;;0.35;59.62;102814.22;5037529;28;20131;-39
2024/01/11 01:07:54;;;;;;;23.13;8.50;;;;;;;0.40;59.48;102802.19;5038358;28;20415;-39
2024/01/11 01:10:19;;;;;;;26.33;8.98;;;;;;;0.51;59.24;102829.19;5042453;28;20036;-39
2024/01/11 01:12:45;;;;;;;22.05;6.57;;;;;;;0.62;58.71;102823.31;5039291;28;20055;-39
2024/01/11 01:15:10;;;;;;;23.27;7.63;;;;;;;0.60;58.54;102821.56;5035516;28;20033;-39
2024/01/11 01:17:36;;;;;;;23.88;8.60;;;;;;;0.49;60.31;102807.56;5035070;28;20459;-39
2024/01/11 01:20:01;;;;;;;35.65;9.82;;;;;;;0.59;59.19;102799.09;5035943;28;20559;-39
2024/01/11 01:22:26;;;;;;;26.30;8.73;;;;;;;0.69;59.09;102801.84;5033845;28;20644;-39
2024/01/11 01:24:52;;;;;;;27.33;9.52;;;;;;;0.57;59.64;102805.09;5037730;28;20399;-39
2024/01/11 01:27:17;;;;;;;31.17;10.13;;;;;;;0.56;60.73;102799.03;5039925;28;20116;-40
2024/01/11 01:29:43;;;;;;;24.52;8.43;;;;;;;0.65;60.55;102803.50;5019328;28;20025;-39
2024/01/11 01:32:08;;;;;;;29.58;9.85;;;;;;;0.73;60.05;102811.41;5036677;28;20067;-40
2024/01/11 01:34:33;;;;;;;34.35;9.85;;;;;;;0.73;61.43;102822.66;5040772;28;20491;-39
2024/01/11 01:36:59;;;;;;;26.17;8.98;;;;;;;0.51;62.81;102820.53;5039637;28;20426;-39
2024/01/11 01:39:24;;;;;;;26.40;8.68;;;;;;;0.34;64.58;102813.34;5037789;28;20029;-39
2024/01/11 01:41:50;;;;;;;29.25;8.20;;;;;;;0.56;64.36;102806.81;5039818;28;20488;-39
2024/01/11 01:44:15;;;;;;;27.83;9.70;;;;;;;0.52;64.44;102792.09;5042743;28;20033;-39
2024/01/11 01:46:40;;;;;;;25.98;9.32;;;;;;;0.57;64.79;102810.28;5039230;28;20040;-39
2024/01/11 01:49:06;;;;;;;25.60;8.68;;;;;;;0.69;64.93;102804.41;5038346;28;20127;-40
2024/01/11 01:51:33;;;;;;;10.85;5.20;;;;;;;0.18;66.72;102809.59;5039779;28;20353;-39
2024/01/11 01:54:00;;;;;;;25.98;8.18;;;;;;;0.22;66.92;102793.28;5042473;28;20052;-39
2024/01/11 01:56:26;;;;;;;24.35;8.50;;;;;;;0.41;67.84;102798.78;5033295;28;20137;-39
2024/01/11 01:58:53;;;;;;;33.63;10.00;;;;;;;0.70;66.68;102795.81;5040010;28;20025;-39
2024/01/11 02:01:20;;;;;;;21.20;8.27;;;;;;;0.51;67.28;102790.34;5037031;28;20028;-39
2024/01/11 02:03:49;;;;;;;20.25;6.18;;;;;;;0.23;69.68;102787.22;5019262;28;20444;-39
2024/01/11 02:06:15;;;;;;;28.77;9.65;;;;;;;0.30;68.26;102783.91;5040001;28;20048;-39
2024/01/11 02:08:43;;;;;;;28.83;9.40;;;;;;;0.71;67.84;102787.19;5034210;28;20033;-39
2024/01/11 02:11:10;;;;;;;30.98;9.60;;;;;;;0.79;67.38;102801.16;5036782;28;20037;-39
2024/01/11 02:13:36;;;;;;;30.80;10.82;;;;;;;0.94;66.43;102802.25;5035303;28;20031;-39
2024/01/11 02:16:01;;;;;;;26.23;10.05;;;;;;;0.88;66.76;102806.47;5037069;28;20037;-39
2024/01/11 02:18:27;;;;;;;31.08;9.45;;;;;;;0.94;65.71;102810.03;5036746;28;20040;-39
2024/01/11 02:20:52;;;;;;;21.95;7.32;;;;;;;0.51;68.46;102815.34;5041633;28;20028;-39
2024/01/11 02:23:21;;;;;;;589.85;204.00;;;;;;;0.80;67.40;102817.56;5035206;28;20048;-39
2024/01/11 02:25:46;;;;;;;19.88;9.30;;;;;;;0.97;66.11;102818.72;5034726;28;20037;-39
2024/01/11 02:28:12;;;;;;;28.02;9.30;;;;;;;0.75;67.64;102814.91;5038177;28;20040;-39
2024/01/11 02:30:37;;;;;;;30.90;10.23;;;;;;;0.64;67.51;102799.16;5040560;28;20442;-39
2024/01/11 02:33:04;;;;;;;28.10;8.75;;;;;;;0.74;67.67;102797.59;5036630;28;20047;-40
2024/01/11 02:35:31;;;;;;;33.50;9.35;;;;;;;0.73;67.95;102803.63;5041228;28;20036;-40
2024/01/11 02:37:58;;;;;;;24.95;7.80;;;;;;;0.73;67.97;102790.69;5039833;28;20523;-39
2024/01/11 02:40:25;;;;;;;29.08;10.95;;;;;;;0.76;68.59;102777.78;5036762;28;20091;-39
2024/01/11 02:42:51;;;;;;;28.65;9.05;;;;;;;0.53;69.33;102761.84;5039355;28;20037;-40
2024/01/11 02:45:16;;;;;;;29.00;9.85;;;;;;;0.79;68.68;102770.06;5038332;28;20113;-39
2024/01/11 02:47:41;;;;;;;26.10;10.50;;;;;;;1.05;67.61;102772.16;5038112;28;20044;-39
2024/01/11 02:50:08;;;;;;;38.20;10.95;;;;;;;1.01;67.38;102765.19;5030017;28;20061;-40
2024/01/11 02:52:34;;;;;;;30.10;10.02;;;;;;;1.00;67.81;102776.41;5034432;28;20129;-39
2024/01/11 02:54:59;;;;;;;32.25;10.02;;;;;;;1.10;67.55;102769.63;5035268;28;20108;-40
2024/01/11 02:57:24;;;;;;;30.75;10.98;;;;;;;1.26;66.88;102774.19;5034414;28;20150;-39
2024/01/11 02:59:51;;;;;;;29.08;8.98;;;;;;;1.21;66.94;102776.72;5034303;28;20530;-39
2024/01/11 03:02:16;;;;;;;28.13;11.75;;;;;;;1.06;67.07;102779.09;5033725;28;20052;-39
2024/01/11 03:04:42;;;;;;;25.17;10.32;;;;;;;1.31;66.20;102766.47;5033209;28;20399;-39
2024/01/11 03:07:07;;;;;;;31.40;10.35;;;;;;;1.27;66.87;102757.78;5032822;28;20032;-39
2024/01/11 03:09:34;;;;;;;27.25;9.35;;;;;;;1.13;67.63;102762.78;5035502;28;20033;-40
2024/01/11 03:11:59;;;;;;;34.10;11.32;;;;;;;1.04;67.77;102765.22;5032696;28;20033;-40
2024/01/11 03:14:25;;;;;;;33.72;10.93;;;;;;;1.09;68.17;102752.31;5033328;28;20071;-39
2024/01/11 03:16:50;;;;;;;34.67;11.60;;;;;;;1.10;68.34;102752.38;5032085;28;20086;-40
2024/01/11 03:19:15;;;;;;;33.92;10.43;;;;;;;1.28;67.84;102745.69;5034367;28;20067;-40
2024/01/11 03:21:46;;;;;;;29.23;9.48;;;;;;;1.27;68.05;102736.16;5027810;28;20517;-39
2024/01/11 03:24:12;;;;;;;30.75;11.90;;;;;;;1.35;67.18;102747.50;5031603;28;20501;-39
2024/01/11 03:26:37;;;;;;;30.58;10.25;;;;;;;1.37;67.34;102751.00;5034084;28;20063;-39
2024/01/11 03:29:02;;;;;;;39.03;12.18;;;;;;;1.27;67.19;102743.94;5035597;28;20123;-39
2024/01/11 03:31:28;;;;;;;35.55;11.05;;;;;;;1.14;68.02;102751.53;5035756;28;20131;-39
2024/01/11 03:33:53;;;;;;;31.23;10.55;;;;;;;1.39;67.72;102751.00;5037934;28;20037;-39
2024/01/11 03:36:23;;;;;;;26.35;8.85;;;;;;;1.21;68.52;102743.00;5036527;28;20037;-39
2024/01/11 03:38:48;;;;;;;30.27;12.15;;;;;;;1.24;68.16;102741.31;5037178;28;20052;-39
2024/01/11 03:41:14;;;;;;;40.83;11.68;;;;;;;1.31;67.54;102753.50;5034300;28;20565;-39
2024/01/11 03:43:39;;;;;;;9.40;2.60;;;;;;;1.55;67.61;102757.28;5036393;28;20439;-40
2024/01/11 03:46:05;;;;;;;7.80;1.80;;;;;;;1.74;67.08;102764.41;5033250;28;20408;-39
2024/01/11 03:48:31;;;;;;;298.92;79.63;;;;;;;1.59;66.85;102766.84;5039245;28;20033;-39
2024/01/11 03:50:56;;;;;;;589.20;191.85;;;;;;;1.59;67.93;102754.72;5036662;28;20037;-39
2024/01/11 03:53:22;;;;;;;16.23;2.63;;;;;;;1.63;67.61;102740.06;5036168;28;20482;-39
2024/01/11 03:55:47;;;;;;;10.88;2.15;;;;;;;1.74;67.11;102753.16;5039023;28;20034;-39
2024/01/11 03:58:14;;;;;;;19.48;6.32;;;;;;;1.68;66.72;102736.66;5039848;28;20032;-39
2024/01/11 04:00:39;;;;;;;9.48;1.45;;;;;;;1.67;67.77;102726.28;5037405;28;20032;-40
2024/01/11 04:03:06;;;;;;;12.30;3.13;;;;;;;1.82;67.85;102721.25;5036211;28;20056;-39
2024/01/11 04:05:32;;;;;;;12.48;3.10;;;;;;;1.67;68.18;102731.47;5036508;28;20119;-39
2024/01/11 04:07:57;;;;;;;11.40;1.88;;;;;;;2.01;66.71;102716.25;5033399;28;20116;-39
2024/01/11 04:10:22;;;;;;;11.77;1.98;;;;;;;1.77;67.59;102712.53;5037854;28;20037;-39
2024/01/11 04:12:48;;;;;;;12.05;2.55;;;;;;;1.95;67.01;102736.94;5041227;28;20025;-39
2024/01/11 04:15:13;;;;;;;12.80;3.22;;;;;;;2.01;67.33;102728.34;5035049;28;20862;-40
2024/01/11 04:17:39;;;;;;;14.55;3.38;;;;;;;2.12;66.92;102724.13;5039597;28;20032;-39
2024/01/11 04:20:06;;;;;;;11.52;2.00;;;;;;;2.21;66.96;102723.34;5036289;28;20680;-39
2024/01/11 04:22:32;;;;;;;12.65;3.28;;;;;;;2.24;66.48;102725.97;5035522;28;23154;-40
2024/01/11 04:24:58;;;;;;;13.85;4.25;;;;;;;2.32;65.91;102729.53;5023700;28;20029;-40
2024/01/11 04:27:23;;;;;;;13.35;3.33;;;;;;;2.31;66.00;102724.31;5038286;28;20033;-39
2024/01/11 04:29:48;;;;;;;12.32;3.17;;;;;;;2.26;66.43;102739.84;5027344;28;20412;-40
2024/01/11 04:32:14;;;;;;;12.93;3.70;;;;;;;2.25;67.06;102725.13;5042273;28;20029;-40
2024/01/11 04:34:39;;;;;;;15.67;5.33;;;;;;;2.34;66.60;102685.34;5037824;28;20133;-40
2024/01/11 04:37:06;;;;;;;12.45;2.80;;;;;;;2.16;67.57;102699.06;5037397;28;20082;-39
2024/01/11 04:39:31;;;;;;;25.88;7.28;;;;;;;1.78;68.87;102723.81;5037532;28;20049;-40
2024/01/11 04:41:56;;;;;;;14.27;3.53;;;;;;;2.07;67.84;102721.50;5035324;28;20031;-39
2024/01/11 04:44:22;;;;;;;16.30;6.23;;;;;;;2.13;67.85;102716.38;5040968;28;20066;-40
2024/01/11 04:46:47;;;;;;;16.20;5.23;;;;;;;2.12;67.61;102711.13;5041888;28;20565;-39
2024/01/11 04:49:15;;;;;;;15.70;5.77;;;;;;;2.17;67.62;102730.25;5039607;28;20029;-40
2024/01/11 04:51:41;;;;;;;24.00;12.63;;;;;;;2.05;68.11;102710.22;5024688;28;20673;-39
2024/01/11 04:54:06;;;;;;;14.02;3.45;;;;;;;2.08;67.93;102705.06;5042823;28;20040;-39
2024/01/11 04:56:32;;;;;;;13.10;3.47;;;;;;;1.95;68.41;102690.22;5043543;28;20061;-39
2024/01/11 04:58:58;;;;;;;16.23;6.67;;;;;;;1.75;68.68;102690.88;5040209;28;20033;-39
2024/01/11 05:01:23;;;;;;;17.30;4.63;;;;;;;2.01;68.69;102700.69;5041456;28;20068;-39
2024/01/11 05:03:49;;;;;;;23.63;14.97;;;;;;;2.02;68.22;102697.22;5019443;28;20522;-39
2024/01/11 05:06:16;;;;;;;20.73;12.53;;;;;;;2.16;68.18;102704.28;5040624;28;20754;-40
2024/01/11 05:08:41;;;;;;;15.13;10.53;;;;;;;2.12;68.39;102705.94;5038282;28;20482;-39
2024/01/11 05:11:07;;;;;;;3.30;2.40;;;;;;;2.00;68.20;102709.31;5037792;28;20058;-39
2024/01/11 05:13:32;;;;;;;6.95;2.60;;;;;;;1.97;68.64;102699.75;5035513;28;20096;-39
2024/01/11 05:15:58;;;;;;;9.68;5.15;;;;;;;2.06;68.15;102711.09;5035511;28;20026;-40
2024/01/11 05:18:23;;;;;;;12.43;4.57;;;;;;;2.07;67.99;102718.91;5040463;28;20037;-39
2024/01/11 05:20:48;;;;;;;17.52;6.07;;;;;;;2.26;67.56;102709.56;5039912;28;20098;-39
2024/01/11 05:23:14;;;;;;;21.77;7.93;;;;;;;2.17;67.80;102695.63;5038973;28;20025;-39
2024/01/11 05:25:39;;;;;;;24.02;7.53;;;;;;;1.97;68.99;102715.34;5041189;28;20025;-39
2024/01/11 05:28:05;;;;;;;20.55;7.55;;;;;;;2.05;68.23;102725.78;5038470;28;20033;-39
2024/01/11 05:30:30;;;;;;;17.25;7.80;;;;;;;1.61;69.49;102705.44;5022277;28;20033;-40
2024/01/11 05:32:56;;;;;;;19.58;7.28;;;;;;;1.76;69.67;102708.19;5035833;28;20032;-39
2024/01/11 05:35:23;;;;;;;20.13;7.90;;;;;;;1.97;68.91;102699.75;5037392;28;20040;-39
2024/01/11 05:37:52;;;;;;;17.52;6.78;;;;;;;2.01;69.07;102673.81;5040989;28;20028;-39
2024/01/11 05:40:17;;;;;;;18.10;5.97;;;;;;;1.95;69.17;102693.69;5040271;28;20036;-40
2024/01/11 05:42:42;;;;;;;17.05;6.82;;;;;;;2.14;68.36;102686.06;5039428;28;20032;-39
2024/01/11 05:45:08;;;;;;;14.23;5.22;;;;;;;1.91;69.29;102684.13;5032526;28;20033;-39
2024/01/11 05:47:33;;;;;;;14.10;5.60;;;;;;;2.07;68.79;102679.94;5039188;28;20037;-40
2024/01/11 05:49:59;;;;;;;19.67;7.25;;;;;;;2.01;69.51;102674.72;5024224;28;20029;-40
2024/01/11 05:52:24;;;;;;;18.45;8.50;;;;;;;2.09;69.01;102662.66;5040707;28;20049;-39
2024/01/11 05:54:50;;;;;;;25.60;8.25;;;;;;;2.17;68.47;102664.44;5044665;28;20399;-40
2024/01/11 05:57:16;;;;;;;16.02;6.55;;;;;;;2.10;68.66;102674.78;5044354;28;20029;-40
2024/01/11 05:59:45;;;;;;;19.08;7.05;;;;;;;2.29;68.32;102669.75;5023167;28;20095;-39
2024/01/11 06:02:11;;;;;;;13.45;6.40;;;;;;;2.16;68.99;102675.69;5033373;28;20036;-39
2024/01/11 06:04:36;;;;;;;16.95;7.18;;;;;;;2.10;69.07;102658.34;5038795;28;20037;-39
2024/01/11 06:07:02;;;;;;;10.05;5.68;;;;;;;2.00;69.40;102652.19;5041321;28;20036;-39
2024/01/11 06:09:27;;;;;;;18.33;6.47;;;;;;;2.11;69.13;102654.88;5037407;28;20426;-40
2024/01/11 06:11:53;;;;;;;20.70;8.10;;;;;;;2.24;68.87;102667.13;5035416;28;20610;-39
2024/01/11 06:14:18;;;;;;;13.13;7.82;;;;;;;2.21;68.53;102668.78;5037214;28;20043;-39
2024/01/11 06:16:43;;;;;;;19.50;8.63;;;;;;;2.10;68.88;102646.22;5036698;28;20442;-40
2024/01/11 06:19:09;;;;;;;15.23;6.00;;;;;;;2.02;69.20;102634.91;5038449;28;20091;-40
2024/01/11 06:21:34;;;;;;;20.73;5.90;;;;;;;2.11;69.12;102639.31;5038394;28;20133;-39
2024/01/11 06:24:00;;;;;;;11.23;5.22;;;;;;;1.68;69.66;102644.97;5039293;28;20037;-40
2024/01/11 06:26:25;;;;;;;18.00;6.97;;;;;;;1.95;69.49;102628.78;5039357;28;20693;-40
2024/01/11 06:28:50;;;;;;;19.80;7.07;;;;;;;1.82;69.76;102622.59;5040619;28;20043;-39
2024/01/11 06:31:17;;;;;;;12.00;6.03;;;;;;;2.02;69.81;102618.44;5039603;28;20072;-40
2024/01/11 06:33:43;;;;;;;35.90;14.93;;;;;;;2.09;69.38;102613.31;5039097;28;20085;-39
2024/01/11 06:36:09;;;;;;;10.00;3.50;;;;;;;1.96;69.33;102625.34;5039702;28;20028;-39
2024/01/11 06:38:34;;;;;;;18.80;11.75;;;;;;;2.09;68.81;102623.69;5040455;28;20032;-40
2024/01/11 06:41:00;;;;;;;7.73;5.37;;;;;;;1.74;70.00;102616.44;5037685;28;20996;-39
2024/01/11 06:43:25;;;;;;;13.90;11.75;;;;;;;2.26;68.94;102613.44;5025792;28;20044;-39
2024/01/11 06:45:50;;;;;;;16.75;5.20;;;;;;;2.17;68.73;102609.91;5033878;28;20537;-40
2024/01/11 06:48:16;;;;;;;11.73;2.10;;;;;;;2.12;69.25;102610.75;5041879;28;20290;-39
2024/01/11 06:50:41;;;;;;;14.07;2.53;;;;;;;1.83;69.69;102613.97;5034979;28;20758;-39
2024/01/11 06:53:07;;;;;;;12.13;3.03;;;;;;;1.70;69.74;102626.81;5036813;28;20090;-40
2024/01/11 06:55:32;;;;;;;9.15;0.98;;;;;;;2.02;69.26;102624.50;5036499;28;20021;-39
2024/01/11 06:57:59;;;;;;;9.77;1.55;;;;;;;2.00;68.80;102634.00;5021097;28;20036;-39
2024/01/11 07:00:24;;;;;;;10.52;1.75;;;;;;;2.21;68.50;102653.22;5038547;28;20041;-40
2024/01/11 07:02:50;;;;;;;12.15;4.53;;;;;;;2.24;68.40;102661.03;5035684;28;20391;-39
2024/01/11 07:05:15;;;;;;;13.27;2.90;;;;;;;1.95;69.12;102659.06;5048960;28;20045;-40
2024/01/11 07:07:40;;;;;;;17.08;4.78;;;;;;;1.79;69.99;102664.09;5037112;28;20052;-39
2024/01/11 07:10:06;;;;;;;11.13;2.33;;;;;;;1.97;69.12;102642.63;5039356;28;20060;-39
2024/01/11 07:12:32;;;;;;;14.02;2.72;;;;;;;2.10;68.56;102637.56;5038790;28;20025;-39
2024/01/11 07:14:58;;;;;;;11.75;2.45;;;;;;;2.22;68.07;102642.84;5038557;28;20033;-39
2024/01/11 07:17:24;;;;;;;11.82;3.13;;;;;;;2.11;69.09;102644.50;5039952;28;20014;-40
2024/01/11 07:19:49;;;;;;;10.05;1.83;;;;;;;2.03;69.38;102648.75;5035144;28;20103;-40
2024/01/11 07:22:14;;;;;;;12.95;4.18;;;;;;;1.85;69.46;102647.72;5043335;28;20124;-40
2024/01/11 07:24:40;;;;;;;13.70;3.88;;;;;;;1.81;69.24;102651.16;5042122;28;20526;-40
2024/01/11 07:27:06;;;;;;;12.00;3.45;;;;;;;2.11;69.00;102644.50;5040423;28;21482;-40
2024/01/11 07:29:32;;;;;;;18.38;4.00;;;;;;;2.07;68.73;102638.38;5046947;28;20035;-39
2024/01/11 07:31:58;;;;;;;12.98;2.38;;;;;;;2.18;68.43;102635.03;5042899;28;20099;-39
2024/01/11 07:34:24;;;;;;;14.80;4.07;;;;;;;1.95;68.92;102631.38;5026851;28;20033;-39
2024/01/11 07:36:50;;;;;;;13.25;1.42;;;;;;;2.18;68.60;102645.41;5045188;28;20031;-39
2024/01/11 07:39:15;;;;;;;12.32;2.17;;;;;;;2.22;68.17;102641.97;5047646;28;20037;-39
2024/01/11 07:41:41;;;;;;;12.98;3.80;;;;;;;2.25;68.40;102647.19;5045184;28;20041;-39
2024/01/11 07:44:07;;;;;;;12.25;4.80;;;;;;;2.22;68.27;102652.34;5047719;28;20044;-39
2024/01/11 07:46:32;;;;;;;13.73;2.72;;;;;;;2.20;68.56;102646.28;5052136;28;20507;-39
2024/01/11 07:48:58;;;;;;;10.63;1.80;;;;;;;2.02;68.91;102637.50;5047157;28;20029;-39
2024/01/11 07:51:25;;;;;;;11.32;2.50;;;;;;;2.19;68.32;102636.78;5045150;28;20075;-40
2024/01/11 07:53:50;;;;;;;12.43;2.65;;;;;;;2.15;68.81;102629.81;5049267;28;20020;-40
2024/01/11 07:56:16;;;;;;;10.70;2.80;;;;;;;2.19;68.95;102628.97;5034281;28;20127;-40
2024/01/11 07:58:42;;;;;;;16.65;4.25;;;;;;;2.12;68.35;102626.31;5050225;28;20025;-39
2024/01/11 08:01:09;;;;;;;21.27;6.65;;;;;;;2.34;68.47;102623.91;5047104;28;20395;-39
2024/01/11 08:03:34;;;;;;;10.32;1.50;;;;;;;2.31;68.17;102623.88;5046713;28;20028;-40
2024/01/11 08:06:01;;;;;;;9.85;1.55;;;;;;;2.26;68.83;102618.66;5048506;28;20090;-39
2024/01/11 08:08:26;;;;;;;13.00;3.35;;;;;;;2.27;68.48;102619.50;5047920;28;20033;-39
2024/01/11 08:10:51;;;;;;;11.90;2.55;;;;;;;2.50;67.92;102603.19;5050854;28;20025;-39
2024/01/11 08:13:17;;;;;;;11.65;2.83;;;;;;;2.34;68.17;102584.94;5051338;28;20036;-39
2024/01/11 08:15:43;;;;;;;15.35;2.45;;;;;;;2.41;68.30;102597.06;5046583;28;20612;-41
2024/01/11 08:18:09;;;;;;;0.10;0.10;;;;;;;2.50;68.27;102592.78;5034812;28;20021;-39
2024/01/11 08:20:35;;;;;;;6.63;3.92;;;;;;;2.49;67.90;102586.72;5051751;28;20029;-40
2024/01/11 08:23:00;;;;;;;1.05;1.05;;;;;;;2.58;67.83;102594.56;5048060;28;20036;-39
2024/01/11 08:25:26;;;;;;;2.45;1.95;;;;;;;2.61;67.80;102580.75;5047539;28;20095;-39
2024/01/11 08:27:51;;;;;;;7.03;1.75;;;;;;;2.46;68.32;102584.09;5045193;28;20029;-40
2024/01/11 08:30:16;;;;;;;1.05;0.98;;;;;;;2.37;68.71;102590.13;5049146;28;20029;-40
2024/01/11 08:32:42;;;;;;;0.52;0.50;;;;;;;2.26;69.31;102596.97;5043137;28;20518;-40
2024/01/11 08:35:11;;;;;;;7.97;3.25;;;;;;;2.51;68.45;102582.41;5030197;28;20119;-39
2024/01/11 08:37:38;;;;;;;0.40;0.40;;;;;;;2.55;68.35;102584.19;5030014;28;20102;-40
2024/01/11 08:40:06;;;;;;;0.13;0.13;;;;;;;2.46;68.83;102578.91;5048881;28;20057;-39
2024/01/11 08:42:32;;;;;;;13.77;11.65;;;;;;;2.54;68.34;102586.75;5045209;28;20403;-39
2024/01/11 08:44:58;;;;;;;15.73;5.03;;;;;;;2.59;68.54;102596.31;5048935;28;20021;-40
2024/01/11 08:47:23;;;;;;;9.88;2.08;;;;;;;2.73;68.20;102599.00;5045526;28;20585;-39
2024/01/11 08:49:49;;;;;;;9.82;1.75;;;;;;;2.73;68.25;102596.38;5046089;28;20116;-40
2024/01/11 08:52:14;;;;;;;10.07;1.70;;;;;;;2.67;68.92;102590.28;5039149;28;20480;-40
2024/01/11 08:54:39;;;;;;;11.68;2.55;;;;;;;2.62;68.74;102589.38;5036261;28;20041;-39
2024/01/11 08:57:05;;;;;;;8.30;0.93;;;;;;;2.72;68.46;102591.19;5041528;28;20755;-39
2024/01/11 08:59:30;;;;;;;11.07;3.00;;;;;;;2.65;69.29;102595.47;5029436;28;20124;-40
2024/01/11 09:01:56;;;;;;;9.48;1.98;;;;;;;2.72;68.73;102610.25;5046375;28;20519;-40
2024/01/11 09:04:21;;;;;;;10.10;5.22;;;;;;;2.93;67.98;102610.34;5046510;28;20083;-40
2024/01/11 09:06:47;;;;;;;8.32;4.32;;;;;;;2.81;68.23;102605.94;5046426;28;20037;-40
2024/01/11 09:09:13;;;;;;;4.10;2.88;;;;;;;2.88;68.17;102624.19;5046323;28;20021;-40
2024/01/11 09:11:39;;;;;;;1.52;1.42;;;;;;;2.81;68.43;102616.34;5046343;28;20033;-40
2024/01/11 09:14:06;;;;;;;0.35;0.35;;;;;;;2.96;68.19;102616.41;5043929;28;20059;-40
2024/01/11 09:16:32;;;;;;;5.35;2.85;;;;;;;2.86;68.68;102617.25;5041347;28;20040;-39
2024/01/11 09:19:00;;;;;;;2.17;1.73;;;;;;;2.91;68.47;102615.53;5047196;28;20032;-40
2024/01/11 09:21:26;;;;;;;4.43;3.05;;;;;;;3.04;68.14;102619.03;5043703;28;20039;-40
2024/01/11 09:23:51;;;;;;;1.80;1.52;;;;;;;2.80;69.40;102623.28;5045488;28;20107;-40
2024/01/11 09:26:16;;;;;;;15.05;2.50;;;;;;;2.80;69.24;102630.22;5046980;28;20044;-39
2024/01/11 09:28:42;;;;;;;4.90;4.47;;;;;;;2.91;69.05;102633.75;5048152;28;20047;-40
2024/01/11 09:31:07;;;;;;;1.48;1.38;;;;;;;3.03;68.61;102630.31;5024175;28;20073;-39
2024/01/11 09:33:32;;;;;;;5.10;3.30;;;;;;;2.91;69.47;102636.34;5046462;28;20388;-39
2024/01/11 09:35:58;;;;;;;4.00;3.60;;;;;;;3.09;68.65;102637.28;5041751;28;20061;-39
2024/01/11 09:38:23;;;;;;;2.45;2.22;;;;;;;2.80;69.07;102643.22;5043291;28;20479;-39
2024/01/11 09:41:02;;;;;;;9.38;5.53;;;;;;;2.75;69.43;102627.59;5044302;28;20028;-39
2024/01/11 09:43:28;;;;;;;10.43;5.25;;;;;;;2.90;69.45;102639.81;5044438;28;20119;-40
2024/01/11 09:45:54;;;;;;;1.02;1.02;;;;;;;2.68;69.70;102642.28;5023268;28;20116;-39
2024/01/11 09:48:20;;;;;;;5.07;2.53;;;;;;;2.88;69.90;102631.13;5026420;28;20060;-39
2024/01/11 09:50:47;;;;;;;6.15;4.15;;;;;;;3.11;68.78;102635.53;5020529;28;20040;-40
2024/01/11 09:53:14;;;;;;;4.57;3.30;;;;;;;3.04;68.73;102632.94;5046560;28;20032;-40
2024/01/11 09:55:39;;;;;;;8.05;4.22;;;;;;;2.95;69.15;102625.06;5038938;28;20035;-39
2024/01/11 09:58:06;;;;;;;3.30;2.92;;;;;;;3.07;68.35;102629.47;5048853;28;20028;-40
2024/01/11 10:00:32;;;;;;;6.22;3.13;;;;;;;3.14;68.31;102623.44;5036690;28;20088;-39
2024/01/11 10:02:57;;;;;;;0.52;0.52;;;;;;;3.38;67.87;102613.09;5047024;28;20041;-39
2024/01/11 10:05:23;;;;;;;7.90;4.22;;;;;;;3.25;68.02;102596.56;5047205;28;20171;-39
2024/01/11 10:07:48;;;;;;;5.22;4.47;;;;;;;3.25;68.21;102600.06;5013791;28;20120;-39
2024/01/11 10:10:17;;;;;;;3.60;1.55;;;;;;;3.25;68.29;102607.00;5034886;28;20078;-39
2024/01/11 10:12:42;;;;;;;8.75;4.07;;;;;;;3.26;68.30;102598.31;5046979;28;20029;-39
2024/01/11 10:15:09;;;;;;;9.63;5.57;;;;;;;3.25;68.18;102610.47;5048370;28;20048;-39
2024/01/11 10:17:44;;;;;;;3.92;3.53;;;;;;;3.33;68.00;102615.66;5048063;28;20029;-40
2024/01/11 10:20:13;;;;;;;4.18;2.67;;;;;;;3.35;67.60;102609.63;5044788;28;20040;-39
2024/01/11 10:22:40;;;;;;;11.35;6.43;;;;;;;3.27;67.89;102613.91;5042448;28;20071;-39
2024/01/11 10:25:13;;;;;;;5.18;3.20;;;;;;;3.41;67.42;102615.69;5044244;28;20037;-39
2024/01/11 10:27:45;;;;;;;2.28;2.13;;;;;;;3.32;67.80;102601.81;5044680;28;20036;-39
2024/01/11 10:30:17;;;;;;;5.77;3.57;;;;;;;3.23;68.07;102599.19;5045684;28;20086;-40
2024/01/11 10:32:46;;;;;;;7.75;3.70;;;;;;;3.53;67.30;102592.31;5045674;28;20025;-39
2024/01/11 10:35:12;;;;;;;4.15;3.15;;;;;;;3.60;67.23;102586.22;5041963;28;21265;-40
2024/01/11 10:37:41;;;;;;;6.72;5.45;;;;;;;3.53;66.92;102587.09;5023400;28;20638;-39
2024/01/11 10:40:15;;;;;;;13.88;4.50;;;;;;;3.57;66.85;102588.81;5043597;28;20033;-39
2024/01/11 10:42:45;;;;;;;9.35;3.38;;;;;;;3.51;67.05;102591.44;5041025;28;20087;-39
2024/01/11 10:45:16;;;;;;;4.93;3.42;;;;;;;3.53;66.64;102597.53;5041326;28;20017;-40
2024/01/11 10:47:49;;;;;;;0.90;0.87;;;;;;;3.76;66.69;102589.72;5046701;28;20035;-39
2024/01/11 10:50:16;;;;;;;2.95;1.65;;;;;;;3.66;67.00;102604.47;5043714;28;20715;-40
2024/01/11 10:52:54;;;;;;;3.42;1.65;;;;;;;3.77;66.59;102591.47;5043723;28;20040;-40
2024/01/11 10:55:21;;;;;;;45.78;5.78;;;;;;;3.69;66.75;102608.81;5039618;28;20051;-39
2024/01/11 10:57:48;;;;;;;3.95;3.05;;;;;;;3.61;67.28;102603.59;5039965;28;20033;-39
2024/01/11 11:00:14;;;;;;;6.40;5.22;;;;;;;3.49;67.27;102611.38;5044453;28;20033;-39
2024/01/11 11:02:41;;;;;;;14.65;5.95;;;;;;;3.56;67.09;102607.91;5043936;28;20041;-38
2024/01/11 11:05:09;;;;;;;5.70;4.32;;;;;;;3.51;67.20;102610.50;5043396;28;20039;-38
2024/01/11 11:07:36;;;;;;;1983.68;861.13;;;;;;;3.71;66.79;102609.69;5044223;28;20498;-39
2024/01/11 11:10:04;;;;;;;15.20;5.18;;;;;;;3.74;66.83;102606.19;5030467;28;20566;-39
2024/01/11 11:12:32;;;;;;;15.55;6.05;;;;;;;3.69;67.14;102607.97;5045690;28;20150;-39
2024/01/11 11:14:59;;;;;;;9.82;1.92;;;;;;;3.78;66.78;102615.75;5040876;28;20221;-40
2024/01/11 11:17:25;;;;;;;20.20;5.07;;;;;;;3.69;67.44;102613.16;5041937;28;20120;-40
2024/01/11 11:19:52;;;;;;;20.73;7.13;;;;;;;3.79;67.03;102617.50;5040658;28;20506;-40